createdAt,value
2023-03-22T00:01:37.854Z,9.40
2023-03-22T00:06:32.879Z,8.73
2023-03-22T00:09:01.568Z,11.68
2023-03-22T00:11:29.172Z,9.15
2023-03-22T00:13:59.000Z,9.43
2023-03-22T00:16:26.767Z,12.80
2023-03-22T00:21:21.584Z,7.15
2023-03-22T00:23:49.105Z,8.88
2023-03-22T00:26:17.632Z,14.93
2023-03-22T00:28:45.155Z,9.52
2023-03-22T00:31:12.751Z,12.98
2023-03-22T00:33:40.930Z,10.20
2023-03-22T00:36:12.442Z,15.48
2023-03-22T00:38:44.218Z,9.57
2023-03-22T00:41:18.019Z,10.27
2023-03-22T00:43:47.457Z,8.82
2023-03-22T00:46:16.501Z,8.77
2023-03-22T00:48:44.536Z,11.95
2023-03-22T00:51:13.419Z,7.07
2023-03-22T00:53:43.047Z,9.10
2023-03-22T00:56:16.410Z,11.18
2023-03-22T01:01:16.425Z,7.40
2023-03-22T01:03:44.259Z,9.63
2023-03-22T01:06:16.076Z,8.15
2023-03-22T01:08:43.825Z,12.75
2023-03-22T01:11:11.238Z,11.63
2023-03-22T01:13:39.532Z,7.95
2023-03-22T01:16:08.395Z,9.73
2023-03-22T01:18:36.783Z,8.27
2023-03-22T01:21:04.649Z,9.05
2023-03-22T01:23:32.216Z,14.50
2023-03-22T01:26:00.259Z,10.13
2023-03-22T01:28:29.032Z,8.65
2023-03-22T01:30:57.173Z,12.30
2023-03-22T01:33:24.686Z,9.38
2023-03-22T01:35:52.748Z,7.25
2023-03-22T01:40:53.824Z,10.43
2023-03-22T01:43:21.906Z,7.70
2023-03-22T01:45:56.418Z,8.52
2023-03-22T01:48:35.670Z,8.82
2023-03-22T01:51:16.788Z,9.32
2023-03-22T01:54:03.140Z,10.27
2023-03-22T01:56:36.005Z,9.27
2023-03-22T01:59:05.127Z,11.32
2023-03-22T02:01:49.706Z,13.60
2023-03-22T02:04:20.939Z,13.27
2023-03-22T02:06:50.069Z,12.65
2023-03-22T02:09:22.192Z,11.27
2023-03-22T02:12:23.223Z,10.70
2023-03-22T02:15:07.022Z,12.00
2023-03-22T02:18:29.986Z,10.32
2023-03-22T02:21:18.033Z,9.00
2023-03-22T02:24:10.409Z,8.32
2023-03-22T02:27:06.600Z,12.95
2023-03-22T02:29:45.220Z,6.07
2023-03-22T02:32:19.222Z,6.82
2023-03-22T02:35:01.888Z,7.70
2023-03-22T02:37:48.139Z,13.05
2023-03-22T02:40:17.696Z,9.82
2023-03-22T02:42:54.687Z,7.10
2023-03-22T02:45:41.331Z,11.35
2023-03-22T02:48:30.757Z,8.70
2023-03-22T02:51:05.818Z,10.02
2023-03-22T02:53:42.402Z,6.97
2023-03-22T02:56:16.131Z,7.60
2023-03-22T02:58:57.476Z,9.27
2023-03-22T03:01:31.409Z,8.40
2023-03-22T03:04:04.869Z,9.15
2023-03-22T03:06:46.102Z,8.20
2023-03-22T03:09:18.236Z,6.72
2023-03-22T03:11:49.288Z,9.80
2023-03-22T03:14:24.425Z,6.72
2023-03-22T03:17:19.983Z,12.35
2023-03-22T03:19:56.524Z,7.35
2023-03-22T03:22:34.010Z,6.45
2023-03-22T03:25:11.895Z,7.13
2023-03-22T03:28:10.235Z,9.55
2023-03-22T03:31:00.600Z,8.13
2023-03-22T03:33:29.509Z,8.70
2023-03-22T03:36:08.160Z,11.73
2023-03-22T03:38:40.434Z,6.68
2023-03-22T03:41:13.833Z,15.13
2023-03-22T03:43:44.032Z,6.57
2023-03-22T03:46:12.155Z,6.75
2023-03-22T03:48:43.235Z,6.43
2023-03-22T03:51:11.542Z,9.25
2023-03-22T03:53:39.182Z,10.73
2023-03-22T03:56:07.214Z,7.65
2023-03-22T03:58:39.664Z,9.15
2023-03-22T04:01:07.733Z,6.63
2023-03-22T04:04:00.515Z,7.43
2023-03-22T04:06:40.326Z,6.72
2023-03-22T04:09:12.794Z,7.93
2023-03-22T04:11:45.287Z,7.93
2023-03-22T04:14:14.778Z,6.70
2023-03-22T04:19:13.529Z,7.32
2023-03-22T04:21:41.421Z,6.25
2023-03-22T04:24:10.563Z,10.80
2023-03-22T04:26:41.747Z,9.70
2023-03-22T04:29:36.680Z,7.25
2023-03-22T04:32:25.370Z,8.32
2023-03-22T04:34:54.936Z,8.77
2023-03-22T04:37:24.689Z,8.38
2023-03-22T04:40:07.869Z,5.57
2023-03-22T04:42:40.648Z,7.18
2023-03-22T04:45:15.731Z,8.35
2023-03-22T04:47:47.688Z,8.05
2023-03-22T04:50:16.444Z,10.40
2023-03-22T04:52:50.878Z,12.82
2023-03-22T04:55:21.536Z,7.68
2023-03-22T04:57:49.516Z,7.07
2023-03-22T05:00:19.127Z,7.25
2023-03-22T05:02:48.600Z,9.48
2023-03-22T05:05:30.277Z,9.50
2023-03-22T05:08:01.142Z,6.90
2023-03-22T05:10:29.426Z,7.78
2023-03-22T05:12:58.902Z,6.13
2023-03-22T05:15:32.744Z,10.20
2023-03-22T05:18:02.360Z,7.97
2023-03-22T05:20:29.756Z,6.75
2023-03-22T05:23:10.270Z,9.45
2023-03-22T05:25:38.999Z,10.55
2023-03-22T05:30:44.066Z,9.50
2023-03-22T05:33:23.560Z,9.15
2023-03-22T05:35:54.738Z,7.63
2023-03-22T05:38:23.349Z,7.82
2023-03-22T05:40:54.141Z,9.00
2023-03-22T05:43:22.484Z,11.00
2023-03-22T05:45:51.395Z,7.22
2023-03-22T05:48:47.963Z,6.40
2023-03-22T05:51:18.080Z,11.35
2023-03-22T05:53:49.156Z,7.85
2023-03-22T05:56:24.770Z,9.90
2023-03-22T05:59:00.986Z,8.32
2023-03-22T06:01:28.557Z,8.45
2023-03-22T06:04:25.417Z,8.50
2023-03-22T06:07:06.519Z,9.13
2023-03-22T06:10:04.878Z,8.98
2023-03-22T06:12:33.508Z,6.57
2023-03-22T06:15:11.561Z,8.00
2023-03-22T06:17:48.759Z,11.35
2023-03-22T06:20:21.432Z,8.18
2023-03-22T06:22:54.461Z,8.13
2023-03-22T06:25:21.931Z,8.50
2023-03-22T06:27:50.376Z,7.65
2023-03-22T06:30:19.340Z,9.82
2023-03-22T06:33:07.071Z,11.10
2023-03-22T06:35:38.527Z,9.75
2023-03-22T06:38:08.146Z,8.70
2023-03-22T06:40:37.791Z,10.40
2023-03-22T06:43:07.227Z,9.40
2023-03-22T06:45:37.284Z,5.75
2023-03-22T06:48:05.727Z,10.18
2023-03-22T06:50:57.167Z,7.85
2023-03-22T06:53:36.474Z,9.05
2023-03-22T06:56:05.739Z,10.68
2023-03-22T06:58:43.078Z,8.45
2023-03-22T07:01:10.848Z,10.65
2023-03-22T07:03:38.425Z,9.43
2023-03-22T07:06:14.049Z,10.00
2023-03-22T07:08:44.651Z,10.35
2023-03-22T07:11:15.656Z,10.90
2023-03-22T07:13:47.082Z,9.05
2023-03-22T07:16:20.135Z,6.72
2023-03-22T07:18:53.969Z,11.45
2023-03-22T07:21:21.504Z,7.00
2023-03-22T07:23:55.528Z,9.68
2023-03-22T07:26:27.793Z,8.40
2023-03-22T07:28:58.175Z,6.60
2023-03-22T07:31:29.829Z,8.27
2023-03-22T07:34:05.942Z,6.65
2023-03-22T07:36:41.779Z,7.25
2023-03-22T07:39:11.724Z,7.65
2023-03-22T07:41:44.398Z,7.60
2023-03-22T07:44:40.601Z,8.23
2023-03-22T07:47:14.210Z,9.25
2023-03-22T07:49:49.429Z,10.45
2023-03-22T07:52:21.287Z,7.35
2023-03-22T07:54:49.352Z,7.38
2023-03-22T07:57:16.922Z,10.60
2023-03-22T07:59:57.454Z,9.00
2023-03-22T08:02:33.580Z,6.63
2023-03-22T08:05:06.162Z,6.03
2023-03-22T08:07:41.522Z,8.18
2023-03-22T08:10:11.354Z,8.98
2023-03-22T08:12:38.934Z,8.82
2023-03-22T08:15:23.578Z,10.02
2023-03-22T08:17:51.572Z,8.02
2023-03-22T08:20:29.279Z,7.43
2023-03-22T08:23:01.326Z,8.88
2023-03-22T08:25:52.398Z,8.95
2023-03-22T08:28:20.507Z,11.70
2023-03-22T08:30:49.446Z,7.00
2023-03-22T08:33:17.046Z,6.82
2023-03-22T08:35:46.479Z,6.72
2023-03-22T08:38:14.794Z,7.07
2023-03-22T08:40:48.008Z,5.18
2023-03-22T08:43:19.947Z,5.30
2023-03-22T08:45:47.895Z,5.43
2023-03-22T08:48:17.490Z,5.68
2023-03-22T08:51:01.254Z,7.10
2023-03-22T08:56:28.999Z,5.07
2023-03-22T08:59:09.928Z,4.60
2023-03-22T09:02:00.147Z,5.78
2023-03-22T09:04:27.749Z,5.88
2023-03-22T09:06:56.349Z,6.30
2023-03-22T09:09:23.950Z,5.93
2023-03-22T09:11:53.775Z,5.85
2023-03-22T09:14:21.840Z,9.70
2023-03-22T09:16:50.029Z,3.15
2023-03-22T09:19:17.747Z,3.35
2023-03-22T09:21:46.005Z,4.93
2023-03-22T09:24:24.068Z,4.55
2023-03-22T09:26:54.607Z,6.65
2023-03-22T09:29:22.355Z,3.17
2023-03-22T09:31:49.826Z,3.75
2023-03-22T09:34:22.644Z,4.03
2023-03-22T09:36:50.060Z,3.08
2023-03-22T09:39:20.845Z,4.57
2023-03-22T09:41:57.663Z,6.35
2023-03-22T09:44:34.244Z,4.50
2023-03-22T09:47:05.449Z,5.03
2023-03-22T09:49:52.548Z,3.72
2023-03-22T09:52:21.781Z,2.72
2023-03-22T09:54:52.239Z,3.20
2023-03-22T09:57:37.140Z,2.53
2023-03-22T10:00:48.123Z,3.45
2023-03-22T10:03:53.464Z,1.95
2023-03-22T10:06:23.037Z,1.73
2023-03-22T10:09:07.046Z,4.70
2023-03-22T10:11:57.556Z,1.83
2023-03-22T10:14:36.063Z,2.58
2023-03-22T10:17:10.669Z,2.53
2023-03-22T10:19:44.112Z,2.35
2023-03-22T10:22:16.665Z,4.25
2023-03-22T10:24:48.908Z,1.90
2023-03-22T10:27:19.869Z,4.57
2023-03-22T10:30:18.789Z,2.25
2023-03-22T10:33:02.814Z,3.38
2023-03-22T10:35:32.000Z,5.97
2023-03-22T10:38:04.737Z,3.42
2023-03-22T10:40:36.614Z,2.15
2023-03-22T10:43:14.664Z,4.47
2023-03-22T10:45:43.334Z,4.95
2023-03-22T10:48:24.182Z,3.53
2023-03-22T10:50:55.547Z,3.22
2023-03-22T10:53:48.394Z,4.35
2023-03-22T10:56:21.073Z,2.15
2023-03-22T10:58:55.567Z,3.55
2023-03-22T11:01:30.023Z,3.33
2023-03-22T11:04:13.756Z,2.90
2023-03-22T11:06:54.874Z,3.35
2023-03-22T11:09:24.849Z,2.28
2023-03-22T11:12:00.435Z,3.55
2023-03-22T11:14:28.019Z,2.70
2023-03-22T11:19:40.484Z,2.85
2023-03-22T11:22:27.527Z,2.38
2023-03-22T11:24:56.953Z,3.35
2023-03-22T11:27:37.156Z,2.05
2023-03-22T11:30:28.954Z,2.20
2023-03-22T11:33:17.411Z,4.22
2023-03-22T11:35:47.720Z,2.90
2023-03-22T11:38:30.425Z,0.77
2023-03-22T11:41:04.904Z,1.77
2023-03-22T11:43:48.570Z,0.88
2023-03-22T11:46:21.450Z,1.08
2023-03-22T11:48:52.137Z,2.97
2023-03-22T11:51:29.938Z,0.73
2023-03-22T11:56:30.594Z,7.30
2023-03-22T11:59:09.178Z,1.63
2023-03-22T12:01:49.353Z,2.70
2023-03-22T12:04:22.957Z,1.95
2023-03-22T12:06:55.513Z,0.77
2023-03-22T12:09:32.885Z,3.28
2023-03-22T12:12:03.894Z,1.35
2023-03-22T12:14:49.036Z,1.98
2023-03-22T12:17:35.553Z,0.73
2023-03-22T12:20:23.004Z,2.47
2023-03-22T12:22:54.693Z,2.15
2023-03-22T12:25:29.360Z,1.50
2023-03-22T12:28:02.365Z,5.35
2023-03-22T12:30:33.967Z,1.52
2023-03-22T12:33:13.678Z,1.23
2023-03-22T12:35:45.646Z,2.58
2023-03-22T12:38:40.795Z,5.15
2023-03-22T12:41:15.693Z,1.42
2023-03-22T12:44:06.019Z,1.35
2023-03-22T12:46:51.732Z,2.17
2023-03-22T12:49:47.350Z,3.53
2023-03-22T12:52:21.769Z,1.77
2023-03-22T12:54:51.190Z,2.15
2023-03-22T12:57:19.253Z,2.33
2023-03-22T12:59:53.492Z,2.60
2023-03-22T13:02:33.229Z,1.73
2023-03-22T13:05:05.091Z,1.42
2023-03-22T13:07:38.650Z,6.38
2023-03-22T13:10:31.494Z,1.15
2023-03-22T13:13:31.633Z,2.65
2023-03-22T13:16:08.604Z,1.80
2023-03-22T13:18:36.493Z,3.43
2023-03-22T13:21:17.916Z,1.15
2023-03-22T13:23:57.818Z,2.00
2023-03-22T13:26:48.311Z,1.42
2023-03-22T13:29:25.456Z,0.93
2023-03-22T13:32:02.320Z,2.15
2023-03-22T13:34:44.365Z,8.48
2023-03-22T13:37:30.514Z,1.45
2023-03-22T13:40:02.550Z,2.67
2023-03-22T13:42:39.565Z,3.05
2023-03-22T13:45:32.462Z,2.28
2023-03-22T13:48:05.478Z,1.73
2023-03-22T13:50:34.597Z,2.95
2023-03-22T13:53:21.588Z,1.20
2023-03-22T13:55:49.428Z,14.13
2023-03-22T14:01:08.026Z,2.78
2023-03-22T14:03:43.503Z,2.03
2023-03-22T14:06:20.698Z,1.77
2023-03-22T14:08:53.615Z,0.80
2023-03-22T14:11:30.009Z,1.75
2023-03-22T14:14:04.266Z,2.80
2023-03-22T14:16:42.942Z,2.05
2023-03-22T14:19:18.931Z,1.90
